Time;durP1;ratioP1;P1;durP2;ratioP2;P2;SDS_P1;SDS_P2;PMS_P1;PMS_P2;Temp;Humidity;BMP_temperature;BMP_pressure;BME280_temperature;BME280_humidity;BME280_pressure;Samples;Min_cycle;Max_cycle;Signal;HPM_P1;HPM_P2
2024/01/16 00:00:09;;;;;;;;;;;-4.00;100.00;;;;;;5032981;28;19967;-70
2024/01/16 00:02:36;;;;;;;;;;;-3.90;100.00;;;;;;5031363;28;19929;-71
2024/01/16 00:05:03;;;;;;;;;;;-3.90;100.00;;;;;;5052412;28;19929;-70
2024/01/16 00:07:32;;;;;;;;;;;-3.90;100.00;;;;;;5026702;28;19936;-71
2024/01/16 00:09:59;;;;;;;;;;;-3.80;100.00;;;;;;5032612;28;19929;-70
2024/01/16 00:12:25;;;;;;;;;;;-3.70;100.00;;;;;;5032778;28;19929;-70
2024/01/16 00:14:52;;;;;;;;;;;-3.70;100.00;;;;;;5027695;28;20373;-70
2024/01/16 00:17:19;;;;;;;;;;;-3.60;100.00;;;;;;5026105;28;19929;-70
2024/01/16 00:19:46;;;;;;;;;;;-3.50;100.00;;;;;;5032564;28;19937;-70
2024/01/16 00:22:12;;;;;;;;;;;-3.50;100.00;;;;;;5042781;28;19960;-70
2024/01/16 00:24:40;;;;;;;;;;;-3.40;100.00;;;;;;5038022;28;19998;-70
2024/01/16 00:27:06;;;;;;;;;;;-3.30;100.00;;;;;;5027934;28;19929;-70
2024/01/16 00:29:37;;;;;;;;;;;-3.30;100.00;;;;;;5025273;28;20370;-70
2024/01/16 00:32:04;;;;;;;;;;;-3.20;100.00;;;;;;5024889;28;19980;-70
2024/01/16 00:34:31;;;;;;;;;;;-3.10;100.00;;;;;;5024791;28;19925;-69
2024/01/16 00:36:58;;;;;;;;;;;-3.10;100.00;;;;;;5029397;28;20445;-70
2024/01/16 00:39:25;;;;;;;;;;;-3.10;100.00;;;;;;5024192;28;19933;-70
2024/01/16 00:41:52;;;;;;;;;;;-3.00;100.00;;;;;;5025321;28;19972;-70
2024/01/16 00:44:18;;;;;;;;;;;-3.00;100.00;;;;;;5029158;28;19936;-70
2024/01/16 00:46:45;;;;;;;;;;;-3.00;100.00;;;;;;5031472;28;20473;-71
2024/01/16 00:49:12;;;;;;;;;;;-3.00;100.00;;;;;;5039341;28;19968;-71
2024/01/16 00:51:39;;;;;;;;;;;-3.00;100.00;;;;;;5029912;28;19935;-70
2024/01/16 00:54:07;;;;;;;;;;;-2.90;100.00;;;;;;5025746;28;19969;-70
2024/01/16 00:56:35;;;;;;;;;;;-3.00;100.00;;;;;;5027524;28;20019;-70
2024/01/16 00:59:03;;;;;;;;;;;-2.90;100.00;;;;;;5026402;28;20431;-69
2024/01/16 01:01:29;;;;;;;;;;;-2.90;100.00;;;;;;5030746;28;19935;-69
2024/01/16 01:03:56;;;;;;;;;;;-2.90;100.00;;;;;;5039252;28;19994;-70
2024/01/16 01:06:23;;;;;;;;;;;-2.90;100.00;;;;;;5026960;28;19936;-70
2024/01/16 01:08:51;;;;;;;;;;;-2.90;100.00;;;;;;5043772;28;20027;-70
2024/01/16 01:11:17;;;;;;;;;;;-2.90;100.00;;;;;;5024949;28;20008;-70
2024/01/16 01:13:44;;;;;;;;;;;-2.80;100.00;;;;;;5023294;28;19929;-70
2024/01/16 01:16:11;;;;;;;;;;;-2.80;100.00;;;;;;5044311;28;20659;-70
2024/01/16 01:18:38;;;;;;;;;;;-2.80;100.00;;;;;;5032855;28;19975;-70
2024/01/16 01:21:05;;;;;;;;;;;-2.70;100.00;;;;;;5009767;28;20545;-70
2024/01/16 01:23:32;;;;;;;;;;;-2.70;100.00;;;;;;5033784;28;20402;-71
2024/01/16 01:26:00;;;;;;;;;;;-2.70;100.00;;;;;;5035947;28;19975;-71
2024/01/16 01:28:26;;;;;;;;;;;-2.70;100.00;;;;;;5039892;28;19933;-71
2024/01/16 01:30:53;;;;;;;;;;;-2.70;100.00;;;;;;5033575;28;20402;-71
2024/01/16 01:33:20;;;;;;;;;;;-2.70;100.00;;;;;;5031957;28;19929;-70
2024/01/16 01:35:47;;;;;;;;;;;-2.60;100.00;;;;;;5023398;28;20008;-70
2024/01/16 01:38:14;;;;;;;;;;;-2.60;100.00;;;;;;5022417;28;19933;-70
2024/01/16 01:40:43;;;;;;;;;;;-2.60;100.00;;;;;;5027301;28;19959;-70
2024/01/16 01:43:19;;;;;;;;;;;-2.50;100.00;;;;;;5025161;28;19933;-70
2024/01/16 01:45:55;;;;;;;;;;;-2.50;100.00;;;;;;5031539;28;20704;-70
2024/01/16 01:48:22;;;;;;;;;;;-2.50;100.00;;;;;;5026096;28;20029;-71
2024/01/16 01:50:49;;;;;;;;;;;-2.40;100.00;;;;;;5031896;28;19939;-70
2024/01/16 01:53:16;;;;;;;;;;;-2.40;100.00;;;;;;5045917;28;19929;-70
2024/01/16 01:55:43;;;;;;;;;;;-2.40;100.00;;;;;;5021733;28;19933;-70
2024/01/16 01:58:09;;;;;;;;;;;-2.40;100.00;;;;;;5030736;28;19929;-71
2024/01/16 02:00:36;;;;;;;;;;;-2.30;100.00;;;;;;5022741;28;19972;-70
2024/01/16 02:03:03;;;;;;;;;;;-2.30;100.00;;;;;;5029837;28;19929;-70
2024/01/16 02:05:30;;;;;;;;;;;-2.30;100.00;;;;;;5042354;28;19940;-70
2024/01/16 02:07:58;;;;;;;;;;;-2.30;100.00;;;;;;5024071;28;19937;-70
2024/01/16 02:10:24;;;;;;;;;;;-2.30;100.00;;;;;;5024742;28;19968;-70
2024/01/16 02:12:51;;;;;;;;;;;-2.30;100.00;;;;;;5024261;28;20475;-69
2024/01/16 02:15:18;;;;;;;;;;;-2.20;100.00;;;;;;5018253;28;19999;-70
2024/01/16 02:17:47;;;;;;;;;;;-2.20;100.00;;;;;;5018618;28;19929;-71
2024/01/16 02:20:14;;;;;;;;;;;-2.20;100.00;;;;;;5018366;28;19936;-70
2024/01/16 02:22:44;;;;;;;;;;;-2.20;100.00;;;;;;5032140;28;20582;-71
2024/01/16 02:25:11;;;;;;;;;;;-2.20;100.00;;;;;;5020355;28;20028;-71
2024/01/16 02:27:38;;;;;;;;;;;-2.20;100.00;;;;;;5027290;28;20687;-70
2024/01/16 02:30:06;;;;;;;;;;;-2.20;100.00;;;;;;5023379;28;19929;-70
2024/01/16 02:32:32;;;;;;;;;;;-2.20;100.00;;;;;;5025221;28;19929;-70
2024/01/16 02:34:59;;;;;;;;;;;-2.20;100.00;;;;;;5026255;28;19933;-70
2024/01/16 02:37:26;;;;;;;;;;;-2.20;100.00;;;;;;5047828;28;20013;-70
2024/01/16 02:39:53;;;;;;;;;;;-2.20;100.00;;;;;;5041904;28;20011;-70
2024/01/16 02:42:19;;;;;;;;;;;-2.20;100.00;;;;;;5028186;28;19932;-70
2024/01/16 02:44:47;;;;;;;;;;;-2.20;100.00;;;;;;5031351;28;19935;-70
2024/01/16 02:47:13;;;;;;;;;;;-2.20;100.00;;;;;;5044704;28;20336;-70
2024/01/16 02:49:40;;;;;;;;;;;-2.20;100.00;;;;;;5032824;28;19932;-72
2024/01/16 02:52:07;;;;;;;;;;;-2.30;100.00;;;;;;5027703;28;19929;-70
2024/01/16 02:54:34;;;;;;;;;;;-2.40;100.00;;;;;;5026909;28;19964;-70
2024/01/16 02:57:00;;;;;;;;;;;-2.40;100.00;;;;;;5027828;28;20373;-70
2024/01/16 02:59:30;;;;;;;;;;;-2.50;100.00;;;;;;5026739;28;19933;-70
2024/01/16 03:01:56;;;;;;;;;;;-2.60;100.00;;;;;;5029052;28;20443;-70
2024/01/16 03:04:23;;;;;;;;;;;-2.70;100.00;;;;;;5042177;28;19936;-70
2024/01/16 03:06:50;;;;;;;;;;;-2.70;100.00;;;;;;5036237;28;20026;-70
2024/01/16 03:09:18;;;;;;;;;;;-2.80;100.00;;;;;;5009223;28;19929;-70
2024/01/16 03:11:44;;;;;;;;;;;-2.90;100.00;;;;;;5031217;28;19929;-71
2024/01/16 03:14:11;;;;;;;;;;;-2.90;100.00;;;;;;5045272;28;19928;-70
2024/01/16 03:16:38;;;;;;;;;;;-2.90;100.00;;;;;;5026385;28;19937;-70
2024/01/16 03:19:05;;;;;;;;;;;-3.00;100.00;;;;;;5029740;28;20447;-70
2024/01/16 03:21:32;;;;;;;;;;;-3.00;100.00;;;;;;5025402;28;20475;-70
2024/01/16 03:23:59;;;;;;;;;;;-3.00;100.00;;;;;;5030989;28;19940;-70
2024/01/16 03:26:26;;;;;;;;;;;-3.00;100.00;;;;;;5029786;28;20419;-70
2024/01/16 03:28:52;;;;;;;;;;;-3.00;100.00;;;;;;5008413;28;19951;-70
2024/01/16 03:31:21;;;;;;;;;;;-3.00;100.00;;;;;;5028509;28;19968;-70
2024/01/16 03:34:05;;;;;;;;;;;-3.00;100.00;;;;;;5043030;28;19939;-69
2024/01/16 03:36:32;;;;;;;;;;;-3.10;100.00;;;;;;5031061;28;20687;-70
2024/01/16 03:38:59;;;;;;;;;;;-3.10;100.00;;;;;;5044708;28;19932;-70
2024/01/16 03:41:26;;;;;;;;;;;-3.10;100.00;;;;;;5029269;28;19925;-70
2024/01/16 03:43:56;;;;;;;;;;;-3.10;100.00;;;;;;5025155;28;20027;-70
2024/01/16 03:46:23;;;;;;;;;;;-3.10;100.00;;;;;;5026625;28;19929;-70
2024/01/16 03:48:49;;;;;;;;;;;-3.10;100.00;;;;;;5024114;28;19960;-70
2024/01/16 03:51:17;;;;;;;;;;;-3.10;100.00;;;;;;5024819;28;20377;-71
2024/01/16 03:53:44;;;;;;;;;;;-3.10;100.00;;;;;;5048128;28;19929;-71
2024/01/16 03:56:11;;;;;;;;;;;-3.10;100.00;;;;;;5025866;28;19925;-71
2024/01/16 03:58:41;;;;;;;;;;;-3.10;100.00;;;;;;5024994;28;19964;-70
2024/01/16 04:01:08;;;;;;;;;;;-3.10;100.00;;;;;;5028783;28;20046;-64
2024/01/16 04:03:35;;;;;;;;;;;-3.20;100.00;;;;;;5023782;28;20043;-64
2024/01/16 04:06:02;;;;;;;;;;;-3.20;100.00;;;;;;5028503;28;19929;-64
2024/01/16 04:08:29;;;;;;;;;;;-3.20;100.00;;;;;;5026587;28;20058;-64
2024/01/16 04:10:56;;;;;;;;;;;-3.10;100.00;;;;;;5047289;28;19925;-64
2024/01/16 04:13:23;;;;;;;;;;;-3.20;100.00;;;;;;5033427;28;19928;-64
2024/01/16 04:15:49;;;;;;;;;;;-3.20;100.00;;;;;;5027962;28;20389;-64
2024/01/16 04:18:16;;;;;;;;;;;-3.20;100.00;;;;;;5032001;28;19941;-64
2024/01/16 04:20:43;;;;;;;;;;;-3.20;100.00;;;;;;5028368;28;19941;-64
2024/01/16 04:23:11;;;;;;;;;;;-3.20;100.00;;;;;;5032989;28;20028;-64
2024/01/16 04:25:39;;;;;;;;;;;-3.20;100.00;;;;;;5033585;28;19986;-64
2024/01/16 04:28:06;;;;;;;;;;;-3.20;100.00;;;;;;5026223;28;20479;-64
2024/01/16 04:30:32;;;;;;;;;;;-3.20;100.00;;;;;;5042669;28;19964;-64
2024/01/16 04:32:59;;;;;;;;;;;-3.20;100.00;;;;;;5041128;28;20032;-64
2024/01/16 04:35:26;;;;;;;;;;;-3.20;100.00;;;;;;5022173;28;19929;-64
2024/01/16 04:37:53;;;;;;;;;;;-3.20;100.00;;;;;;5026281;28;20011;-64
2024/01/16 04:40:20;;;;;;;;;;;-3.20;100.00;;;;;;5039631;28;20328;-64
2024/01/16 04:42:46;;;;;;;;;;;-3.20;100.00;;;;;;5033459;28;20304;-65
2024/01/16 04:45:13;;;;;;;;;;;-3.20;100.00;;;;;;5027136;28;20024;-64
2024/01/16 04:47:40;;;;;;;;;;;-3.30;100.00;;;;;;5034310;28;19933;-64
2024/01/16 04:50:08;;;;;;;;;;;-3.30;100.00;;;;;;5018011;28;19929;-64
2024/01/16 04:52:35;;;;;;;;;;;-3.30;100.00;;;;;;5026932;28;19929;-64
2024/01/16 04:55:01;;;;;;;;;;;-3.30;100.00;;;;;;5042175;28;20974;-64
2024/01/16 04:57:28;;;;;;;;;;;-3.30;100.00;;;;;;5029126;28;19929;-65
2024/01/16 04:59:55;;;;;;;;;;;-3.30;100.00;;;;;;5024679;28;20400;-64
2024/01/16 05:02:22;;;;;;;;;;;-3.30;100.00;;;;;;5030089;28;19975;-64
2024/01/16 05:04:51;;;;;;;;;;;-3.30;100.00;;;;;;5026352;28;19929;-64
2024/01/16 05:07:20;;;;;;;;;;;-3.30;100.00;;;;;;5009898;28;19951;-64
2024/01/16 05:09:47;;;;;;;;;;;-3.30;100.00;;;;;;5034303;28;19952;-65
2024/01/16 05:12:13;;;;;;;;;;;-3.30;100.00;;;;;;5017763;28;20429;-64
2024/01/16 05:14:40;;;;;;;;;;;-3.30;100.00;;;;;;5032569;28;19956;-64
2024/01/16 05:17:08;;;;;;;;;;;-3.30;100.00;;;;;;5032561;28;19956;-64
2024/01/16 05:19:35;;;;;;;;;;;-3.30;100.00;;;;;;5023563;28;19929;-64
2024/01/16 05:22:02;;;;;;;;;;;-3.30;100.00;;;;;;5020379;28;19929;-64
2024/01/16 05:24:29;;;;;;;;;;;-3.20;100.00;;;;;;5023558;28;20739;-64
2024/01/16 05:26:56;;;;;;;;;;;-3.20;100.00;;;;;;5014379;28;19972;-70
2024/01/16 05:29:23;;;;;;;;;;;-3.20;100.00;;;;;;5033486;28;20015;-70
2024/01/16 05:31:50;;;;;;;;;;;-3.10;100.00;;;;;;5035363;28;19929;-70
2024/01/16 05:34:17;;;;;;;;;;;-3.10;100.00;;;;;;5007221;28;20022;-70
2024/01/16 05:36:44;;;;;;;;;;;-3.10;100.00;;;;;;5027873;28;19983;-70
2024/01/16 05:39:11;;;;;;;;;;;-3.20;100.00;;;;;;5024982;28;20012;-71
2024/01/16 05:41:38;;;;;;;;;;;-3.20;100.00;;;;;;5030261;28;20605;-70
2024/01/16 05:44:04;;;;;;;;;;;-3.20;100.00;;;;;;5025521;28;19951;-70
2024/01/16 05:46:32;;;;;;;;;;;-3.30;100.00;;;;;;5025046;28;19932;-71
2024/01/16 05:48:59;;;;;;;;;;;-3.30;100.00;;;;;;5025456;28;19933;-71
2024/01/16 05:51:27;;;;;;;;;;;-3.40;100.00;;;;;;5023001;28;20016;-70
2024/01/16 05:53:54;;;;;;;;;;;-3.40;100.00;;;;;;5023958;28;20030;-71
2024/01/16 05:56:21;;;;;;;;;;;-3.40;100.00;;;;;;5013585;28;20690;-70
2024/01/16 05:58:48;;;;;;;;;;;-3.50;100.00;;;;;;5047167;28;19929;-70
2024/01/16 06:01:15;;;;;;;;;;;-3.50;100.00;;;;;;5023970;28;19936;-71
2024/01/16 06:03:43;;;;;;;;;;;-3.60;100.00;;;;;;5034406;28;19929;-71
2024/01/16 06:06:10;;;;;;;;;;;-3.60;100.00;;;;;;5026228;28;19931;-71
2024/01/16 06:08:37;;;;;;;;;;;-3.60;100.00;;;;;;5028095;28;19940;-70
2024/01/16 06:11:04;;;;;;;;;;;-3.60;100.00;;;;;;5042417;28;19928;-69
2024/01/16 06:13:32;;;;;;;;;;;-3.60;100.00;;;;;;5025360;28;20273;-68
2024/01/16 06:15:59;;;;;;;;;;;-3.60;100.00;;;;;;5024857;28;20023;-69
2024/01/16 06:18:26;;;;;;;;;;;-3.50;100.00;;;;;;5051931;28;20231;-70
2024/01/16 06:20:53;;;;;;;;;;;-3.50;100.00;;;;;;5028784;28;19929;-69
2024/01/16 06:23:20;;;;;;;;;;;-3.50;100.00;;;;;;5026298;28;19936;-69
2024/01/16 06:25:47;;;;;;;;;;;-3.40;100.00;;;;;;5027319;28;19933;-70
2024/01/16 06:28:13;;;;;;;;;;;-3.40;100.00;;;;;;5044738;28;19936;-71
2024/01/16 06:30:40;;;;;;;;;;;-3.30;100.00;;;;;;5030127;28;19929;-70
2024/01/16 06:33:07;;;;;;;;;;;-3.30;100.00;;;;;;5031019;28;20813;-69
2024/01/16 06:35:34;;;;;;;;;;;-3.20;100.00;;;;;;5017762;28;20123;-69
2024/01/16 06:38:01;;;;;;;;;;;-3.10;100.00;;;;;;5029860;28;20027;-69
2024/01/16 06:40:28;;;;;;;;;;;-3.10;100.00;;;;;;5029433;28;19936;-69
2024/01/16 06:42:55;;;;;;;;;;;-3.10;100.00;;;;;;5053910;28;19995;-68
2024/01/16 06:45:22;;;;;;;;;;;-3.00;100.00;;;;;;5042580;28;19987;-68
2024/01/16 06:47:49;;;;;;;;;;;-3.00;100.00;;;;;;5021693;28;20200;-68
2024/01/16 06:50:17;;;;;;;;;;;-3.00;100.00;;;;;;5040413;28;20027;-68
2024/01/16 06:52:44;;;;;;;;;;;-2.90;100.00;;;;;;5035964;28;19929;-69
2024/01/16 06:55:11;;;;;;;;;;;-2.90;100.00;;;;;;5042062;28;19968;-68
2024/01/16 06:57:37;;;;;;;;;;;-2.90;100.00;;;;;;5028752;28;19929;-68
2024/01/16 07:00:07;;;;;;;;;;;-2.80;100.00;;;;;;5027910;28;20587;-68
2024/01/16 07:02:34;;;;;;;;;;;-2.80;100.00;;;;;;5026538;28;19929;-68
2024/01/16 07:05:00;;;;;;;;;;;-2.80;100.00;;;;;;5040610;28;19936;-68
2024/01/16 07:07:27;;;;;;;;;;;-2.80;100.00;;;;;;5056119;28;20550;-68
2024/01/16 07:09:54;;;;;;;;;;;-2.80;100.00;;;;;;5033502;28;20401;-68
2024/01/16 07:12:21;;;;;;;;;;;-2.90;100.00;;;;;;5030042;28;20002;-69
2024/01/16 07:14:47;;;;;;;;;;;-2.90;100.00;;;;;;5053068;28;20038;-68
2024/01/16 07:17:14;;;;;;;;;;;-2.90;100.00;;;;;;5062120;28;19929;-68
2024/01/16 07:19:41;;;;;;;;;;;-2.90;100.00;;;;;;5040595;28;19928;-68
2024/01/16 07:22:08;;;;;;;;;;;-2.80;100.00;;;;;;5038239;28;20672;-69
2024/01/16 07:24:35;;;;;;;;;;;-2.80;100.00;;;;;;5030835;28;19975;-69
2024/01/16 07:27:02;;;;;;;;;;;-2.80;100.00;;;;;;5043337;28;19971;-68
2024/01/16 07:29:29;;;;;;;;;;;-2.80;100.00;;;;;;5030849;28;20010;-68
2024/01/16 07:31:56;;;;;;;;;;;-2.80;100.00;;;;;;5046254;28;19983;-68
2024/01/16 07:34:23;;;;;;;;;;;-2.80;100.00;;;;;;5030702;28;20641;-68
2024/01/16 07:36:50;;;;;;;;;;;-2.80;100.00;;;;;;5029043;28;19972;-69
2024/01/16 07:39:16;;;;;;;;;;;-2.80;100.00;;;;;;5023130;28;19979;-70
2024/01/16 07:41:43;;;;;;;;;;;-2.80;100.00;;;;;;5030267;28;19932;-70
2024/01/16 07:44:10;;;;;;;;;;;-2.80;100.00;;;;;;5046997;28;19940;-68
2024/01/16 07:46:37;;;;;;;;;;;-2.80;100.00;;;;;;5042910;28;20501;-68
2024/01/16 07:49:04;;;;;;;;;;;-2.80;100.00;;;;;;5031704;28;19948;-68
2024/01/16 07:51:31;;;;;;;;;;;-2.70;100.00;;;;;;5034115;28;19929;-68
2024/01/16 07:54:05;;;;;;;;;;;-2.80;100.00;;;;;;5026850;28;20016;-69
2024/01/16 07:56:33;;;;;;;;;;;-2.80;100.00;;;;;;5022599;28;20382;-68
2024/01/16 07:59:01;;;;;;;;;;;-2.80;100.00;;;;;;5027066;28;19939;-68
2024/01/16 08:01:30;;;;;;;;;;;-2.80;100.00;;;;;;5044546;28;19952;-70
2024/01/16 08:03:57;;;;;;;;;;;-2.80;100.00;;;;;;5029247;28;20432;-68
2024/01/16 08:06:24;;;;;;;;;;;-2.90;100.00;;;;;;5027850;28;19975;-68
2024/01/16 08:08:51;;;;;;;;;;;-2.90;100.00;;;;;;5050091;28;19925;-68
2024/01/16 08:11:18;;;;;;;;;;;-2.90;100.00;;;;;;5021022;28;19964;-70
2024/01/16 08:13:45;;;;;;;;;;;-2.90;100.00;;;;;;5045714;28;19929;-69
2024/01/16 08:16:12;;;;;;;;;;;-2.80;100.00;;;;;;5036555;28;19999;-70
2024/01/16 08:18:39;;;;;;;;;;;-2.80;100.00;;;;;;5038563;28;19937;-68
2024/01/16 08:21:05;;;;;;;;;;;-2.80;100.00;;;;;;5030840;28;20336;-68
2024/01/16 08:23:32;;;;;;;;;;;-2.70;100.00;;;;;;5019716;28;20046;-68
2024/01/16 08:26:00;;;;;;;;;;;-2.70;100.00;;;;;;5054953;28;19929;-68
2024/01/16 08:28:27;;;;;;;;;;;-2.60;100.00;;;;;;5032833;28;19929;-69
2024/01/16 08:30:54;;;;;;;;;;;-2.70;100.00;;;;;;5029672;28;20044;-69
2024/01/16 08:33:21;;;;;;;;;;;-2.60;100.00;;;;;;5026916;28;19932;-69
2024/01/16 08:36:02;;;;;;;;;;;-2.60;100.00;;;;;;5029956;28;20061;-69
2024/01/16 08:38:29;;;;;;;;;;;-2.50;100.00;;;;;;5031307;28;19936;-69
2024/01/16 08:40:56;;;;;;;;;;;-2.50;100.00;;;;;;5039433;28;19937;-69
2024/01/16 08:43:23;;;;;;;;;;;-2.40;100.00;;;;;;5027531;28;20521;-70
2024/01/16 08:45:50;;;;;;;;;;;-2.30;100.00;;;;;;5026749;28;19932;-68
2024/01/16 08:48:17;;;;;;;;;;;-2.30;100.00;;;;;;5027135;28;19929;-69
2024/01/16 08:50:44;;;;;;;;;;;-2.20;100.00;;;;;;5041892;28;19979;-69
2024/01/16 08:53:10;;;;;;;;;;;-2.20;100.00;;;;;;5026157;28;19929;-69
2024/01/16 08:55:37;;;;;;;;;;;-2.20;100.00;;;;;;5038209;28;20663;-68
2024/01/16 08:58:04;;;;;;;;;;;-2.20;100.00;;;;;;5112639;22;19932;-65
2024/01/16 09:00:31;;;;;;;;;;;-2.10;100.00;;;;;;5046753;28;19952;-64
2024/01/16 09:02:57;;;;;;;;;;;-2.10;100.00;;;;;;5045200;28;19929;-64
2024/01/16 09:05:27;;;;;;;;;;;-2.00;100.00;;;;;;5044178;28;20457;-64
2024/01/16 09:07:53;;;;;;;;;;;-2.00;100.00;;;;;;5026627;28;19932;-64
2024/01/16 09:10:20;;;;;;;;;;;-2.00;100.00;;;;;;5044422;28;20006;-64
2024/01/16 09:12:48;;;;;;;;;;;-1.90;100.00;;;;;;5045251;28;19938;-64
2024/01/16 09:15:15;;;;;;;;;;;-1.90;100.00;;;;;;5044604;28;19929;-64
2024/01/16 09:17:42;;;;;;;;;;;-1.90;100.00;;;;;;5045241;28;19974;-64
2024/01/16 09:20:09;;;;;;;;;;;-1.90;100.00;;;;;;5044807;28;19941;-64
2024/01/16 09:22:36;;;;;;;;;;;-1.90;100.00;;;;;;5045186;28;19952;-64
2024/01/16 09:25:03;;;;;;;;;;;-1.80;100.00;;;;;;5044658;28;19936;-64
2024/01/16 09:27:29;;;;;;;;;;;-1.70;100.00;;;;;;5044934;28;19932;-64
2024/01/16 09:29:56;;;;;;;;;;;-1.70;100.00;;;;;;5026627;28;20675;-64
2024/01/16 09:32:23;;;;;;;;;;;-1.70;100.00;;;;;;5045066;28;19929;-64
2024/01/16 09:34:50;;;;;;;;;;;-1.70;100.00;;;;;;5045287;28;20380;-64
2024/01/16 09:37:17;;;;;;;;;;;-1.60;100.00;;;;;;5045548;28;19925;-64
2024/01/16 09:39:44;;;;;;;;;;;-1.60;100.00;;;;;;5045149;28;19978;-65
2024/01/16 09:42:11;;;;;;;;;;;-1.60;100.00;;;;;;5044970;28;19928;-64
2024/01/16 09:44:40;;;;;;;;;;;-1.50;100.00;;;;;;5045911;28;20006;-65
2024/01/16 09:47:08;;;;;;;;;;;-1.50;100.00;;;;;;5049626;28;19928;-69
2024/01/16 09:49:35;;;;;;;;;;;-1.50;100.00;;;;;;5049895;28;19936;-68
2024/01/16 09:52:02;;;;;;;;;;;-1.50;100.00;;;;;;5049805;28;19986;-68
2024/01/16 09:54:29;;;;;;;;;;;-1.50;100.00;;;;;;5064898;28;20305;-69
2024/01/16 09:56:58;;;;;;;;;;;-1.50;100.00;;;;;;5049683;28;19929;-68
2024/01/16 09:59:26;;;;;;;;;;;-1.40;100.00;;;;;;5048317;28;20392;-69
2024/01/16 10:01:53;;;;;;;;;;;-1.30;100.00;;;;;;5047327;28;19936;-69
2024/01/16 10:04:20;;;;;;;;;;;-1.20;100.00;;;;;;5048075;28;20683;-69
2024/01/16 10:06:47;;;;;;;;;;;-1.10;100.00;;;;;;5048025;28;19967;-69
2024/01/16 10:09:15;;;;;;;;;;;-1.00;100.00;;;;;;5063379;28;19975;-69
2024/01/16 10:11:42;;;;;;;;;;;-0.90;100.00;;;;;;5048769;28;19998;-69
2024/01/16 10:14:09;;;;;;;;;;;-0.80;100.00;;;;;;5049020;28;19933;-68
2024/01/16 10:16:56;;;;;;;;;;;-0.70;100.00;;;;;;5048558;28;19935;-68
2024/01/16 10:19:22;;;;;;;;;;;-0.70;100.00;;;;;;5063643;28;19975;-68
2024/01/16 10:22:06;;;;;;;;;;;-0.50;100.00;;;;;;5061948;28;19940;-69
2024/01/16 10:24:35;;;;;;;;;;;-0.40;100.00;;;;;;5047176;28;20393;-70
2024/01/16 10:27:03;;;;;;;;;;;-0.40;100.00;;;;;;5046925;28;19929;-69
2024/01/16 10:29:32;;;;;;;;;;;-0.30;100.00;;;;;;5047236;28;20055;-69
2024/01/16 10:32:26;;;;;;;;;;;-0.40;100.00;;;;;;5047348;28;19929;-65
2024/01/16 10:35:04;;;;;;;;;;;-0.30;100.00;;;;;;5046564;28;20015;-69
2024/01/16 10:37:40;;;;;;;;;;;-0.30;100.00;;;;;;5047542;28;19935;-66
2024/01/16 10:40:07;;;;;;;;;;;-0.30;100.00;;;;;;5047529;28;20061;-65
2024/01/16 10:42:34;;;;;;;;;;;-0.30;100.00;;;;;;5049604;28;19929;-66
2024/01/16 10:45:01;;;;;;;;;;;-0.20;100.00;;;;;;5050472;28;19991;-65
2024/01/16 10:47:28;;;;;;;;;;;-0.10;100.00;;;;;;5049521;28;20397;-65
2024/01/16 10:49:55;;;;;;;;;;;-0.10;100.00;;;;;;5047562;28;19990;-65
2024/01/16 10:52:25;;;;;;;;;;;-0.30;100.00;;;;;;5047665;28;19972;-65
2024/01/16 10:54:52;;;;;;;;;;;-0.40;100.00;;;;;;5029154;28;19925;-65
2024/01/16 10:57:19;;;;;;;;;;;-0.40;100.00;;;;;;5047114;28;19932;-65
2024/01/16 10:59:49;;;;;;;;;;;-0.50;100.00;;;;;;5047170;28;20250;-66
2024/01/16 11:02:18;;;;;;;;;;;-0.50;100.00;;;;;;5046976;28;19929;-65
2024/01/16 11:04:46;;;;;;;;;;;-0.50;100.00;;;;;;5047584;28;19936;-65
2024/01/16 11:07:13;;;;;;;;;;;-0.50;100.00;;;;;;5047248;28;20405;-68
2024/01/16 11:09:41;;;;;;;;;;;-0.50;100.00;;;;;;5029129;28;19932;-65
2024/01/16 11:12:08;;;;;;;;;;;-0.60;100.00;;;;;;5046834;28;19986;-66
2024/01/16 11:14:36;;;;;;;;;;;-0.60;100.00;;;;;;5029292;28;20031;-65
2024/01/16 11:17:03;;;;;;;;;;;-0.50;100.00;;;;;;5046598;28;20018;-66
2024/01/16 11:19:31;;;;;;;;;;;-0.60;100.00;;;;;;5047329;28;19928;-65
2024/01/16 11:22:04;;;;;;;;;;;-0.60;100.00;;;;;;5046969;28;19973;-65
2024/01/16 11:24:31;;;;;;;;;;;-0.40;100.00;;;;;;5046968;28;20366;-65
2024/01/16 11:26:58;;;;;;;;;;;-0.30;100.00;;;;;;5046628;28;19929;-65
2024/01/16 11:29:28;;;;;;;;;;;-0.20;100.00;;;;;;5046523;28;19999;-65
2024/01/16 11:31:56;;;;;;;;;;;-0.20;100.00;;;;;;5061459;28;20021;-65
2024/01/16 11:34:49;;;;;;;;;;;-0.30;100.00;;;;;;5046365;28;19928;-65
2024/01/16 11:37:24;;;;;;;;;;;-0.40;100.00;;;;;;5045676;28;19936;-65
2024/01/16 11:39:54;;;;;;;;;;;-0.50;100.00;;;;;;5046454;28;19936;-65
2024/01/16 11:42:28;;;;;;;;;;;-0.40;100.00;;;;;;5046802;28;19990;-65
2024/01/16 11:44:55;;;;;;;;;;;-0.40;100.00;;;;;;5046594;28;19935;-65
2024/01/16 11:47:24;;;;;;;;;;;-0.40;100.00;;;;;;5045967;28;20487;-65
2024/01/16 11:50:07;;;;;;;;;;;-0.40;100.00;;;;;;5046161;28;19935;-65
2024/01/16 11:52:42;;;;;;;;;;;-0.40;100.00;;;;;;5045869;28;19928;-65
2024/01/16 11:55:26;;;;;;;;;;;-0.30;100.00;;;;;;5044649;28;19937;-65
2024/01/16 11:57:53;;;;;;;;;;;-0.40;100.00;;;;;;5045290;28;20249;-65
2024/01/16 12:00:21;;;;;;;;;;;-0.40;100.00;;;;;;5045128;28;20049;-65
2024/01/16 12:02:56;;;;;;;;;;;-0.40;100.00;;;;;;5044466;28;20027;-65
2024/01/16 12:05:23;;;;;;;;;;;-0.40;100.00;;;;;;5045008;28;19929;-65
2024/01/16 12:07:50;;;;;;;;;;;-0.30;100.00;;;;;;5043957;28;20063;-65
2024/01/16 12:10:18;;;;;;;;;;;-0.30;100.00;;;;;;5060179;28;20027;-65
2024/01/16 12:12:46;;;;;;;;;;;-0.20;100.00;;;;;;5045077;28;20023;-65
2024/01/16 12:15:15;;;;;;;;;;;-0.20;100.00;;;;;;5060126;28;19929;-65
2024/01/16 12:18:03;;;;;;;;;;;-0.10;100.00;;;;;;5027897;28;19929;-65
2024/01/16 12:20:31;;;;;;;;;;;0.00;100.00;;;;;;5045692;28;20587;-65
2024/01/16 12:22:59;;;;;;;;;;;-0.10;100.00;;;;;;5046420;28;19974;-65
2024/01/16 12:25:27;;;;;;;;;;;-0.10;100.00;;;;;;5028162;28;19924;-66
2024/01/16 12:28:17;;;;;;;;;;;-0.10;100.00;;;;;;5031067;28;19929;-65
2024/01/16 12:30:58;;;;;;;;;;;-0.20;100.00;;;;;;5045642;28;20024;-65
2024/01/16 12:33:24;;;;;;;;;;;-0.10;100.00;;;;;;5045620;28;19929;-66
2024/01/16 12:36:00;;;;;;;;;;;-0.10;100.00;;;;;;5045335;28;20051;-66
2024/01/16 12:38:27;;;;;;;;;;;-0.10;100.00;;;;;;5045496;28;20468;-66
2024/01/16 12:40:54;;;;;;;;;;;-0.10;100.00;;;;;;5045335;28;20464;-66
2024/01/16 12:43:21;;;;;;;;;;;-0.10;100.00;;;;;;5045470;28;19964;-66
2024/01/16 12:45:55;;;;;;;;;;;-0.10;100.00;;;;;;5060397;28;20393;-66
2024/01/16 12:48:25;;;;;;;;;;;-0.10;100.00;;;;;;5045482;28;19960;-66
2024/01/16 12:51:02;;;;;;;;;;;-0.10;100.00;;;;;;5045654;28;19936;-66
2024/01/16 12:53:36;;;;;;;;;;;-0.10;100.00;;;;;;5044833;28;20396;-66
2024/01/16 12:56:03;;;;;;;;;;;-0.10;100.00;;;;;;5045294;28;20533;-66
2024/01/16 12:58:34;;;;;;;;;;;-0.10;100.00;;;;;;5045008;28;19929;-66
2024/01/16 13:01:20;;;;;;;;;;;-0.10;100.00;;;;;;5061511;28;19939;-67
2024/01/16 13:04:04;;;;;;;;;;;-0.10;100.00;;;;;;5057438;28;19951;-67
2024/01/16 13:06:31;;;;;;;;;;;0.00;100.00;;;;;;5059893;28;19935;-67
2024/01/16 13:09:09;;;;;;;;;;;0.00;100.00;;;;;;5044325;28;19929;-70
2024/01/16 13:11:45;;;;;;;;;;;0.00;100.00;;;;;;5044575;28;20606;-71
2024/01/16 13:14:12;;;;;;;;;;;0.00;100.00;;;;;;5044217;28;20345;-70
2024/01/16 13:16:38;;;;;;;;;;;0.00;100.00;;;;;;5059250;28;19929;-71
2024/01/16 13:19:09;;;;;;;;;;;0.00;100.00;;;;;;5044284;28;19929;-70
2024/01/16 13:21:39;;;;;;;;;;;0.00;100.00;;;;;;5045259;28;20035;-71
2024/01/16 13:24:06;;;;;;;;;;;0.00;100.00;;;;;;5045608;28;20678;-72
2024/01/16 13:26:33;;;;;;;;;;;0.00;100.00;;;;;;5046030;28;19929;-69
2024/01/16 13:29:00;;;;;;;;;;;0.00;100.00;;;;;;5047709;28;19928;-69
2024/01/16 13:31:27;;;;;;;;;;;0.00;100.00;;;;;;5042142;28;20043;-70
2024/01/16 13:33:56;;;;;;;;;;;0.00;100.00;;;;;;5043850;28;19936;-69
2024/01/16 13:36:23;;;;;;;;;;;0.00;100.00;;;;;;5044221;28;19940;-69
2024/01/16 13:39:12;;;;;;;;;;;0.00;100.00;;;;;;5043936;28;19928;-66
2024/01/16 13:41:40;;;;;;;;;;;0.00;100.00;;;;;;5026478;28;19978;-66
2024/01/16 13:44:07;;;;;;;;;;;0.10;100.00;;;;;;5044361;28;19939;-66
2024/01/16 13:46:34;;;;;;;;;;;0.10;100.00;;;;;;5044750;28;19972;-66
2024/01/16 13:49:03;;;;;;;;;;;0.10;100.00;;;;;;5059614;28;20553;-66
2024/01/16 13:51:30;;;;;;;;;;;0.00;100.00;;;;;;5027340;28;19929;-66
2024/01/16 13:53:57;;;;;;;;;;;0.00;100.00;;;;;;5026848;28;20534;-66
2024/01/16 13:56:24;;;;;;;;;;;0.00;100.00;;;;;;5044809;28;20015;-66
2024/01/16 13:59:10;;;;;;;;;;;0.00;100.00;;;;;;5045036;28;19951;-66
2024/01/16 14:01:37;;;;;;;;;;;0.00;100.00;;;;;;5059894;28;19935;-66
2024/01/16 14:04:05;;;;;;;;;;;0.00;100.00;;;;;;5044815;28;19990;-66
2024/01/16 14:06:32;;;;;;;;;;;0.10;100.00;;;;;;5026473;28;19929;-66
2024/01/16 14:09:19;;;;;;;;;;;0.00;100.00;;;;;;5029728;28;19936;-66
2024/01/16 14:11:45;;;;;;;;;;;0.10;100.00;;;;;;5044110;28;19929;-66